Time;durP1;ratioP1;P1;durP2;ratioP2;P2;SDS_P1;SDS_P2;PMS_P1;PMS_P2;Temp;Humidity;BMP_temperature;BMP_pressure;BME280_temperature;BME280_humidity;BME280_pressure;Samples;Min_cycle;Max_cycle;Signal;HPM_P1;HPM_P2
2022/04/10 00:01:06;;;;;;;1.30;0.97;;;2.40;99.90;2.20;100211.00;;;;4875294;28;88167;-64
2022/04/10 00:03:32;;;;;;;2.17;0.93;;;2.40;99.90;2.20;100209.00;;;;4878401;28;96852;-63
2022/04/10 00:05:57;;;;;;;0.87;0.73;;;2.40;99.90;2.20;100224.00;;;;4873655;28;89221;-64
2022/04/10 00:08:23;;;;;;;0.70;0.70;;;2.40;99.90;2.20;100222.00;;;;4877759;28;89845;-63
2022/04/10 00:10:49;;;;;;;1.63;0.97;;;2.40;99.90;2.10;100217.00;;;;4878350;28;109217;-64
2022/04/10 00:13:15;;;;;;;1.00;0.90;;;2.40;99.90;2.10;100216.00;;;;4877883;28;106642;-64
2022/04/10 00:15:41;;;;;;;1.23;0.90;;;2.40;99.90;2.10;100213.00;;;;4878341;28;102872;-63
2022/04/10 00:18:07;;;;;;;1.33;0.80;;;2.30;99.90;2.00;100226.00;;;;4877462;28;117570;-64
2022/04/10 00:20:32;;;;;;;0.60;0.60;;;2.30;99.90;2.00;100222.00;;;;4878931;28;87694;-63
2022/04/10 00:22:58;;;;;;;0.67;0.50;;;2.80;99.90;2.00;100217.00;;;;4858968;28;109250;-65
2022/04/10 00:25:24;;;;;;;1.20;1.07;;;2.30;99.90;2.00;100226.00;;;;4859478;28;116672;-65
2022/04/10 00:27:50;;;;;;;0.70;0.70;;;2.20;99.90;1.90;100227.00;;;;4874316;28;117349;-64
2022/04/10 00:30:18;;;;;;;1.00;0.90;;;2.20;99.90;1.90;100225.00;;;;4874093;28;99916;-65
2022/04/10 00:32:44;;;;;;;0.83;0.60;;;2.20;99.90;2.00;100223.00;;;;4854424;28;87947;-65
2022/04/10 00:35:11;;;;;;;1.40;1.07;;;2.10;99.90;2.00;100220.00;;;;4844180;28;88032;-65
2022/04/10 00:37:38;;;;;;;1.20;0.73;;;2.20;99.90;2.00;100230.00;;;;4859707;28;89771;-66
2022/04/10 00:40:06;;;;;;;0.97;0.80;;;2.20;99.90;2.00;100228.00;;;;4859543;28;87616;-66
2022/04/10 00:42:36;;;;;;;5.33;1.00;;;2.20;99.90;2.00;100229.00;;;;4872194;28;99717;-63
2022/04/10 00:45:03;;;;;;;1.00;0.70;;;2.20;99.90;2.00;100230.00;;;;4861282;28;88471;-64
2022/04/10 00:47:29;;;;;;;0.70;0.70;;;2.30;99.90;2.00;100229.00;;;;4877655;28;88138;-63
2022/04/10 00:49:58;;;;;;;0.70;0.60;;;2.30;99.90;2.10;100233.00;;;;4877617;28;99145;-64
2022/04/10 00:52:26;;;;;;;6.83;1.53;;;2.30;99.90;2.10;100233.00;;;;4859948;28;87856;-64
2022/04/10 00:54:53;;;;;;;0.60;0.60;;;2.30;99.90;2.20;100226.00;;;;4877194;28;89162;-64
2022/04/10 00:57:19;;;;;;;0.30;0.30;;;2.30;99.90;2.20;100225.00;;;;4862373;28;87982;-64
2022/04/10 00:59:45;;;;;;;1.73;1.13;;;2.40;99.90;2.20;100222.00;;;;4859075;28;87877;-64
2022/04/10 01:02:11;;;;;;;0.80;0.80;;;2.40;99.90;2.30;100235.00;;;;4858134;28;100432;-64
2022/04/10 01:04:37;;;;;;;1.60;1.10;;;2.50;99.90;2.30;100240.00;;;;4860180;28;103998;-65
2022/04/10 01:07:04;;;;;;;1.07;0.87;;;2.50;99.90;2.30;100234.00;;;;4858296;28;89017;-64
2022/04/10 01:09:33;;;;;;;0.93;0.63;;;2.50;99.90;2.40;100234.00;;;;4858974;28;87655;-64
2022/04/10 01:12:00;;;;;;;0.93;0.60;;;2.60;99.90;2.40;100241.00;;;;4872692;28;87124;-64
2022/04/10 01:14:27;;;;;;;0.90;0.90;;;2.60;99.90;2.40;100248.00;;;;4860693;28;88763;-64
2022/04/10 01:16:53;;;;;;;0.43;0.43;;;2.60;99.90;2.40;100248.00;;;;4858157;28;117276;-65
2022/04/10 01:19:20;;;;;;;1.03;0.60;;;2.90;99.90;2.40;100245.00;;;;4857433;28;110655;-65
2022/04/10 01:21:47;;;;;;;0.60;0.53;;;2.70;99.90;2.40;100246.00;;;;4871630;28;88136;-64
2022/04/10 01:24:14;;;;;;;1.60;1.00;;;2.60;99.90;2.40;100253.00;;;;4858628;28;87835;-63
2022/04/10 01:26:42;;;;;;;1.07;0.97;;;2.70;99.90;2.40;100252.00;;;;4874835;28;88714;-64
2022/04/10 01:29:15;;;;;;;2.63;0.90;;;3.20;99.90;2.40;100246.00;;;;4877641;28;103595;-64
2022/04/10 01:31:43;;;;;;;1.17;1.03;;;2.70;99.90;2.40;100253.00;;;;4877024;28;87701;-65
2022/04/10 01:34:14;;;;;;;0.53;0.53;;;2.60;99.90;2.40;100257.00;;;;4873386;28;101162;-65
2022/04/10 01:36:42;;;;;;;1.33;0.60;;;2.60;99.90;2.40;100262.00;;;;4858680;28;87206;-64
2022/04/10 01:39:09;;;;;;;1.30;0.83;;;2.60;99.90;2.40;100267.00;;;;4857960;28;87807;-64
2022/04/10 01:41:35;;;;;;;0.70;0.50;;;2.60;99.90;2.40;100266.00;;;;4871315;28;87674;-64
2022/04/10 01:44:05;;;;;;;0.70;0.70;;;2.60;99.90;2.50;100253.00;;;;4857870;28;89988;-64
2022/04/10 01:46:32;;;;;;;3.03;1.03;;;2.70;99.90;2.60;100258.00;;;;4858585;28;88874;-63
2022/04/10 01:48:59;;;;;;;0.90;0.70;;;2.70;99.90;2.60;100251.00;;;;4868917;28;88145;-64
2022/04/10 01:51:25;;;;;;;0.73;0.67;;;2.80;99.90;2.70;100264.00;;;;4859118;28;87614;-64
2022/04/10 01:53:53;;;;;;;1.70;1.17;;;2.80;99.90;2.70;100254.00;;;;4869467;28;87982;-64
2022/04/10 01:56:20;;;;;;;2.93;1.23;;;2.90;99.90;2.70;100265.00;;;;4877078;28;88590;-64
2022/04/10 01:58:48;;;;;;;0.73;0.40;;;3.00;99.90;2.80;100256.00;;;;4876169;28;88162;-64
2022/04/10 02:01:16;;;;;;;0.80;0.80;;;2.90;99.90;2.80;100260.00;;;;4876327;28;86902;-64
2022/04/10 02:03:43;;;;;;;0.80;0.70;;;3.00;99.90;2.90;100247.00;;;;4877269;28;88150;-63
2022/04/10 02:06:14;;;;;;;0.80;0.80;;;3.10;99.90;2.90;100261.00;;;;4876401;28;88026;-63
2022/04/10 02:08:42;;;;;;;0.70;0.70;;;3.10;99.90;2.90;100264.00;;;;4875813;28;88846;-64
2022/04/10 02:11:13;;;;;;;0.93;0.93;;;3.10;99.90;2.90;100265.00;;;;4876872;28;87643;-64
2022/04/10 02:13:40;;;;;;;1.20;0.70;;;3.10;99.90;2.90;100275.00;;;;4876653;28;87736;-64
2022/04/10 02:16:08;;;;;;;5.20;1.30;;;3.10;99.90;3.00;100268.00;;;;4877397;28;88018;-63
2022/04/10 02:18:35;;;;;;;1.90;1.13;;;3.10;99.90;3.00;100266.00;;;;4850540;28;88047;-63
2022/04/10 02:21:01;;;;;;;1.10;0.93;;;3.20;99.90;3.10;100266.00;;;;4877732;28;87662;-64
2022/04/10 02:23:26;;;;;;;0.70;0.57;;;3.30;99.90;3.20;100270.00;;;;4874096;28;117727;-63
2022/04/10 02:25:53;;;;;;;0.63;0.63;;;3.40;99.90;3.30;100272.00;;;;4877219;28;116781;-63
2022/04/10 02:28:19;;;;;;;0.80;0.80;;;3.80;99.90;3.30;100264.00;;;;4876452;28;93782;-63
2022/04/10 02:30:44;;;;;;;1.10;1.00;;;3.50;99.90;3.40;100272.00;;;;4868877;28;108177;-64
2022/04/10 02:33:10;;;;;;;5.03;1.10;;;3.50;99.90;3.50;100262.00;;;;4855240;28;118734;-64
2022/04/10 02:35:36;;;;;;;4.23;0.60;;;3.60;99.90;3.50;100268.00;;;;4872383;28;87998;-64
2022/04/10 02:38:02;;;;;;;1.37;0.90;;;3.70;99.90;3.60;100266.00;;;;4877194;28;87811;-63
2022/04/10 02:40:27;;;;;;;3.53;0.60;;;3.70;99.90;3.60;100266.00;;;;4876473;28;87632;-65
2022/04/10 02:42:53;;;;;;;2.07;0.90;;;3.70;99.90;3.60;100274.00;;;;4854789;28;117390;-64
2022/04/10 02:45:19;;;;;;;4.03;1.03;;;3.80;99.90;3.70;100285.00;;;;4865963;28;114208;-64
2022/04/10 02:47:44;;;;;;;1.37;1.10;;;3.80;99.90;3.70;100284.00;;;;4878687;28;109479;-64
2022/04/10 02:50:12;;;;;;;1.13;0.60;;;3.80;99.90;3.70;100276.00;;;;4879933;28;87088;-64
2022/04/10 02:52:38;;;;;;;2.33;0.57;;;3.80;99.90;3.70;100281.00;;;;4878887;28;87552;-64
2022/04/10 02:55:04;;;;;;;2.17;0.90;;;3.90;99.90;3.80;100278.00;;;;4868035;28;116100;-64
2022/04/10 02:57:30;;;;;;;0.83;0.63;;;4.00;99.90;3.80;100273.00;;;;4877207;28;99884;-65
2022/04/10 02:59:55;;;;;;;1.40;0.57;;;4.30;99.90;3.80;100283.00;;;;4877047;28;109186;-64
2022/04/10 03:02:21;;;;;;;3.27;1.03;;;3.90;99.90;3.80;100272.00;;;;4859618;28;117124;-63
2022/04/10 03:04:46;;;;;;;2.00;0.73;;;4.00;99.90;3.80;100283.00;;;;4857882;28;116428;-64
2022/04/10 03:07:12;;;;;;;2.93;0.93;;;4.50;99.90;3.80;100274.00;;;;4859809;28;110408;-64
2022/04/10 03:09:38;;;;;;;0.63;0.60;;;4.00;99.90;3.80;100279.00;;;;4870014;28;93711;-63
2022/04/10 03:12:04;;;;;;;1.13;0.80;;;4.30;99.90;3.80;100280.00;;;;4877896;28;118372;-64
2022/04/10 03:14:30;;;;;;;1.53;0.93;;;4.00;99.90;3.80;100286.00;;;;4862967;28;87774;-64
2022/04/10 03:16:57;;;;;;;0.57;0.53;;;4.00;99.90;3.80;100287.00;;;;4859022;28;110332;-65
2022/04/10 03:19:23;;;;;;;1.23;0.77;;;4.00;99.90;3.80;100278.00;;;;4860043;28;87648;-65
2022/04/10 03:21:48;;;;;;;2.20;0.83;;;3.90;99.90;3.70;100271.00;;;;4870139;28;118303;-63
2022/04/10 03:24:14;;;;;;;0.80;0.80;;;3.80;99.90;3.60;100277.00;;;;4859591;28;116850;-64
2022/04/10 03:26:39;;;;;;;0.83;0.73;;;3.80;99.90;3.50;100284.00;;;;4876546;28;110874;-65
2022/04/10 03:29:05;;;;;;;0.57;0.43;;;3.80;99.90;3.50;100288.00;;;;4879475;28;108236;-64
2022/04/10 03:31:31;;;;;;;1.17;0.87;;;3.70;99.90;3.50;100285.00;;;;4864225;28;100707;-65
2022/04/10 03:33:57;;;;;;;0.77;0.77;;;3.70;99.90;3.50;100291.00;;;;4861027;28;95720;-64
2022/04/10 03:36:22;;;;;;;1.33;1.03;;;3.60;99.90;3.50;100292.00;;;;4872116;28;87484;-64
2022/04/10 03:38:48;;;;;;;0.70;0.70;;;3.60;99.90;3.50;100298.00;;;;4879035;28;107771;-65
2022/04/10 03:41:13;;;;;;;4.37;0.93;;;3.80;99.90;3.40;100298.00;;;;4873472;28;118341;-65
2022/04/10 03:43:39;;;;;;;3.30;0.60;;;3.60;99.90;3.50;100311.00;;;;4877660;28;118032;-65
2022/04/10 03:46:05;;;;;;;0.93;0.90;;;3.70;99.90;3.50;100311.00;;;;4868548;28;89341;-64
2022/04/10 03:48:31;;;;;;;0.83;0.73;;;3.60;99.90;3.50;100299.00;;;;4858802;28;108443;-64
2022/04/10 03:50:56;;;;;;;2.60;1.07;;;3.60;99.90;3.50;100312.00;;;;4858016;28;117718;-65
2022/04/10 03:53:22;;;;;;;1.17;0.67;;;3.70;99.90;3.50;100313.00;;;;4867559;28;117088;-65
2022/04/10 03:55:48;;;;;;;1.10;1.00;;;3.70;99.90;3.50;100316.00;;;;4874613;28;109893;-64
2022/04/10 03:58:14;;;;;;;0.43;0.43;;;3.60;99.90;3.50;100313.00;;;;4877356;28;107430;-64
2022/04/10 04:00:40;;;;;;;1.30;0.93;;;3.70;99.90;3.50;100319.00;;;;4871218;28;107102;-66
2022/04/10 04:03:06;;;;;;;0.80;0.70;;;3.70;99.90;3.50;100318.00;;;;4858893;28;116553;-64
2022/04/10 04:05:32;;;;;;;1.80;1.13;;;3.70;99.90;3.50;100315.00;;;;4859750;28;87926;-65
2022/04/10 04:07:58;;;;;;;2.33;1.13;;;3.70;99.90;3.50;100326.00;;;;4860053;28;87952;-65
2022/04/10 04:10:24;;;;;;;2.30;1.00;;;3.70;99.90;3.50;100320.00;;;;4872873;28;88831;-65
2022/04/10 04:12:50;;;;;;;1.23;0.77;;;3.70;99.90;3.50;100319.00;;;;4859759;28;88765;-64
2022/04/10 04:15:16;;;;;;;1.07;0.80;;;3.20;99.90;3.50;100326.00;;;;4860560;28;87558;-65
2022/04/10 04:17:41;;;;;;;2.20;1.00;;;4.00;99.90;3.50;100326.00;;;;4859116;28;108897;-64
2022/04/10 04:20:09;;;;;;;2.43;1.03;;;3.70;99.90;3.50;100333.00;;;;4859560;28;89251;-65
2022/04/10 04:22:35;;;;;;;3.30;1.13;;;3.70;99.90;3.50;100336.00;;;;4874528;28;91555;-65
2022/04/10 04:25:03;;;;;;;1.40;0.97;;;3.70;99.90;3.50;100352.00;;;;4878210;28;88029;-64
2022/04/10 04:27:28;;;;;;;2.37;0.90;;;3.70;99.90;3.50;100348.00;;;;4877765;28;101051;-65
2022/04/10 04:29:54;;;;;;;4.27;1.30;;;3.70;99.90;3.50;100350.00;;;;4878671;28;117811;-64
2022/04/10 04:32:20;;;;;;;0.77;0.77;;;3.60;99.90;3.50;100359.00;;;;4863324;28;87677;-65
2022/04/10 04:34:47;;;;;;;1.00;0.73;;;4.20;99.90;3.50;100359.00;;;;4858553;28;110713;-65
2022/04/10 04:37:13;;;;;;;2.53;0.97;;;3.60;99.90;3.50;100364.00;;;;4867984;28;87829;-64
2022/04/10 04:39:39;;;;;;;2.43;0.90;;;3.70;99.90;3.50;100364.00;;;;4878034;28;88899;-65
2022/04/10 04:42:05;;;;;;;0.93;0.83;;;3.70;99.90;3.50;100364.00;;;;4861526;28;117503;-65
2022/04/10 04:44:31;;;;;;;7.40;1.03;;;3.70;99.90;3.50;100376.00;;;;4858414;28;101351;-65
2022/04/10 04:46:58;;;;;;;1.03;0.93;;;3.70;99.90;3.50;100369.00;;;;4857856;28;108137;-65
2022/04/10 04:49:25;;;;;;;1.57;1.30;;;3.70;99.90;3.50;100377.00;;;;4857157;28;92735;-64
2022/04/10 04:51:50;;;;;;;3.57;1.03;;;3.70;99.90;3.50;100382.00;;;;4858946;28;98259;-64
2022/04/10 04:54:16;;;;;;;0.80;0.77;;;3.70;99.90;3.50;100377.00;;;;4873344;28;109924;-64
2022/04/10 04:56:42;;;;;;;0.73;0.60;;;3.70;99.90;3.50;100383.00;;;;4873654;28;108620;-64
2022/04/10 04:59:07;;;;;;;3.37;1.00;;;3.70;99.90;3.50;100390.00;;;;4876958;28;119751;-64
2022/04/10 05:01:33;;;;;;;0.87;0.70;;;3.70;99.90;3.60;100401.00;;;;4876666;28;118793;-65
2022/04/10 05:03:59;;;;;;;2.47;0.93;;;3.70;99.90;3.50;100400.00;;;;4875174;28;109567;-65
2022/04/10 05:06:27;;;;;;;1.33;1.20;;;3.70;99.90;3.50;100401.00;;;;4858462;28;87761;-65
2022/04/10 05:08:53;;;;;;;4.53;1.30;;;3.70;99.90;3.60;100397.00;;;;4858443;28;88199;-64
2022/04/10 05:11:19;;;;;;;1.23;1.13;;;3.80;99.90;3.60;100410.00;;;;4857732;28;118172;-64
2022/04/10 05:13:44;;;;;;;1.07;0.97;;;3.70;99.90;3.60;100417.00;;;;4857497;28;109822;-66
2022/04/10 05:16:11;;;;;;;2.43;1.30;;;4.20;99.90;3.60;100410.00;;;;4869798;28;108036;-65
2022/04/10 05:18:36;;;;;;;0.93;0.70;;;3.80;99.90;3.60;100421.00;;;;4875587;28;118385;-64
2022/04/10 05:21:03;;;;;;;2.53;1.00;;;3.80;99.90;3.60;100415.00;;;;4874404;28;118313;-65
2022/04/10 05:23:29;;;;;;;1.30;1.03;;;3.80;99.90;3.60;100415.00;;;;4876320;28;97709;-65
2022/04/10 05:25:55;;;;;;;2.87;1.07;;;3.90;99.90;3.70;100424.00;;;;4876738;28;107791;-65
2022/04/10 05:28:22;;;;;;;4.47;1.43;;;3.80;99.90;3.70;100435.00;;;;4875943;28;119592;-65
2022/04/10 05:30:47;;;;;;;6.17;1.80;;;3.80;99.90;3.70;100432.00;;;;4869032;28;88309;-65
2022/04/10 05:33:14;;;;;;;2.47;1.33;;;3.90;99.90;3.70;100442.00;;;;4869668;28;108748;-64
2022/04/10 05:35:40;;;;;;;0.63;0.60;;;3.90;99.90;3.70;100442.00;;;;4867478;28;99067;-65
2022/04/10 05:38:05;;;;;;;3.80;1.07;;;3.80;99.90;3.70;100448.00;;;;4874085;28;88697;-65
2022/04/10 05:40:32;;;;;;;2.70;1.20;;;3.80;99.90;3.70;100445.00;;;;4873157;28;110184;-64
2022/04/10 05:42:58;;;;;;;1.27;1.07;;;3.80;99.90;3.70;100450.00;;;;4876112;28;87767;-65
2022/04/10 05:45:23;;;;;;;1.23;0.70;;;3.90;99.90;3.80;100455.00;;;;4877588;28;87768;-65
2022/04/10 05:47:49;;;;;;;2.60;1.37;;;3.90;99.90;3.80;100443.00;;;;4859701;28;88829;-64
2022/04/10 05:50:16;;;;;;;1.70;1.03;;;4.10;99.90;3.90;100460.00;;;;4857553;28;105809;-64
2022/04/10 05:52:47;;;;;;;2.60;1.43;;;4.00;99.90;4.00;100463.00;;;;4860126;28;90317;-65
2022/04/10 05:55:15;;;;;;;2.17;1.43;;;4.10;99.90;4.00;100453.00;;;;4861749;28;88052;-65
2022/04/10 05:57:42;;;;;;;0.97;0.90;;;4.20;99.90;4.10;100473.00;;;;4876727;28;88281;-64
2022/04/10 06:00:14;;;;;;;1.90;1.30;;;4.20;99.90;4.10;100466.00;;;;4872099;28;94956;-65
2022/04/10 06:02:41;;;;;;;2.73;1.23;;;4.30;99.90;4.10;100465.00;;;;4858048;28;87768;-66
2022/04/10 06:05:07;;;;;;;0.80;0.70;;;4.30;99.90;4.20;100458.00;;;;4840211;28;100669;-64
2022/04/10 06:07:33;;;;;;;2.70;1.20;;;4.30;99.90;4.20;100464.00;;;;4858664;28;88533;-64
2022/04/10 06:09:59;;;;;;;2.60;0.97;;;4.30;99.90;4.20;100469.00;;;;4857184;28;116247;-65
2022/04/10 06:12:26;;;;;;;1.97;1.40;;;4.80;99.90;4.30;100459.00;;;;4856939;28;110909;-65
2022/04/10 06:14:51;;;;;;;4.53;1.13;;;4.40;99.90;4.20;100472.00;;;;4858169;28;88179;-65
2022/04/10 06:17:17;;;;;;;6.00;2.10;;;4.40;99.90;4.30;100463.00;;;;4858877;28;115169;-65
2022/04/10 06:19:43;;;;;;;1.97;1.23;;;5.00;99.90;4.30;100478.00;;;;4861175;28;92152;-65
2022/04/10 06:22:09;;;;;;;1.10;1.00;;;5.00;99.90;4.50;100485.00;;;;4860393;28;110228;-65
2022/04/10 06:24:36;;;;;;;2.37;1.30;;;4.60;99.90;4.60;100476.00;;;;4860634;28;107554;-65
2022/04/10 06:27:02;;;;;;;2.13;1.13;;;4.70;99.90;4.70;100472.00;;;;4865006;28;89237;-64
2022/04/10 06:29:28;;;;;;;6.17;1.50;;;4.80;99.90;4.80;100486.00;;;;4870410;28;88800;-65
2022/04/10 06:31:54;;;;;;;1.63;1.30;;;5.40;99.90;4.90;100479.00;;;;4861296;28;110614;-65
2022/04/10 06:34:20;;;;;;;2.40;1.30;;;5.00;99.90;4.90;100490.00;;;;4874508;28;88762;-64
2022/04/10 06:36:47;;;;;;;2.00;1.20;;;5.10;99.90;5.00;100492.00;;;;4879246;28;89941;-64
2022/04/10 06:39:13;;;;;;;1.60;1.27;;;5.10;99.90;5.00;100496.00;;;;4879629;28;89548;-63
2022/04/10 06:41:39;;;;;;;5.97;1.67;;;5.20;99.90;5.00;100485.00;;;;4880720;28;87753;-65
2022/04/10 06:44:05;;;;;;;3.57;1.33;;;5.10;99.90;5.00;100493.00;;;;4864489;28;108471;-64
2022/04/10 06:46:31;;;;;;;2.73;1.03;;;5.10;99.90;5.00;100510.00;;;;4859727;28;118496;-64
2022/04/10 06:48:56;;;;;;;1.13;0.93;;;5.10;99.90;5.00;100499.00;;;;4859532;28;116811;-64
2022/04/10 06:51:22;;;;;;;6.20;1.50;;;5.10;99.90;5.00;100499.00;;;;4860876;28;88109;-65
2022/04/10 06:53:48;;;;;;;4.00;1.13;;;5.60;99.90;5.00;100497.00;;;;4872777;28;92714;-64
2022/04/10 06:56:14;;;;;;;3.60;1.17;;;5.10;99.90;5.00;100500.00;;;;4875764;28;117731;-65
2022/04/10 06:58:40;;;;;;;3.87;1.20;;;5.10;99.90;5.10;100507.00;;;;4874874;28;88348;-64
2022/04/10 07:01:06;;;;;;;0.93;0.93;;;5.20;99.90;5.10;100497.00;;;;4877859;28;99736;-65
2022/04/10 07:03:32;;;;;;;2.80;1.10;;;5.90;99.90;5.20;100493.00;;;;4874976;28;104681;-65
2022/04/10 07:05:58;;;;;;;2.43;1.10;;;5.80;99.90;5.20;100494.00;;;;4879338;28;89319;-64
2022/04/10 07:08:24;;;;;;;3.53;1.50;;;5.30;99.90;5.20;100502.00;;;;4876043;28;117490;-63
2022/04/10 07:10:49;;;;;;;3.13;1.57;;;5.30;99.90;5.30;100505.00;;;;4879165;28;87854;-63
2022/04/10 07:13:19;;;;;;;2.70;1.33;;;5.40;99.90;5.30;100496.00;;;;4877244;28;108389;-64
2022/04/10 07:15:52;;;;;;;2.20;1.00;;;5.40;99.90;5.30;100502.00;;;;4878372;28;89538;-64
2022/04/10 07:18:19;;;;;;;3.47;1.07;;;6.00;99.90;5.40;100508.00;;;;4876886;28;87888;-64
2022/04/10 07:20:45;;;;;;;4.23;1.27;;;5.40;99.90;5.40;100504.00;;;;4878715;28;87879;-65
2022/04/10 07:25:56;;;;;;;4.30;1.27;;;6.20;99.90;5.50;100510.00;;;;4874567;28;88792;-64
2022/04/10 07:28:21;;;;;;;4.53;1.50;;;6.10;99.90;5.50;100503.00;;;;4876604;28;104122;-65
2022/04/10 07:30:47;;;;;;;1.50;1.03;;;5.60;99.90;5.50;100522.00;;;;4876862;28;109938;-66
2022/04/10 07:33:13;;;;;;;2.63;1.10;;;5.90;99.90;5.50;100515.00;;;;4870643;28;108828;-65
2022/04/10 07:35:43;;;;;;;2.53;1.13;;;5.80;99.90;5.40;100518.00;;;;4877685;28;106012;-66
2022/04/10 07:38:12;;;;;;;1.53;1.20;;;5.50;99.90;5.40;100523.00;;;;4877649;28;94089;-65
2022/04/10 07:40:38;;;;;;;7.93;1.30;;;5.90;99.90;5.30;100526.00;;;;4878022;28;87916;-65
2022/04/10 07:43:04;;;;;;;3.20;1.00;;;5.50;99.90;5.30;100521.00;;;;4874538;28;99982;-64
2022/04/10 07:48:15;;;;;;;1.10;1.00;;;5.40;99.90;5.30;100531.00;;;;4860767;28;88141;-65
2022/04/10 07:50:42;;;;;;;2.50;1.03;;;6.00;99.90;5.40;100542.00;;;;4875394;28;89010;-64
2022/04/10 07:53:07;;;;;;;2.27;1.20;;;5.90;99.90;5.30;100532.00;;;;4870739;28;88224;-64
2022/04/10 07:55:33;;;;;;;1.40;1.07;;;5.40;99.90;5.30;100528.00;;;;4874246;28;116638;-65
2022/04/10 07:57:59;;;;;;;2.67;1.37;;;5.50;99.90;5.30;100539.00;;;;4873668;28;117040;-65
2022/04/10 08:00:25;;;;;;;1.10;1.00;;;5.40;99.90;5.30;100547.00;;;;4876186;28;110059;-65
2022/04/10 08:02:52;;;;;;;1.70;0.93;;;5.40;99.90;5.30;100547.00;;;;4874801;28;87941;-65
2022/04/10 08:05:19;;;;;;;2.53;1.43;;;5.40;99.90;5.30;100545.00;;;;4874989;28;88624;-65
2022/04/10 08:07:46;;;;;;;1.57;1.07;;;5.40;99.90;5.20;100544.00;;;;4875583;28;88805;-66
2022/04/10 08:10:13;;;;;;;1.57;1.10;;;5.30;99.90;5.20;100546.00;;;;4875095;28;88737;-65
2022/04/10 08:12:40;;;;;;;4.00;1.10;;;5.40;99.90;5.20;100551.00;;;;4872065;28;88379;-65
2022/04/10 08:15:07;;;;;;;2.23;1.03;;;5.70;99.90;5.10;100562.00;;;;4874344;28;89144;-65
2022/04/10 08:17:33;;;;;;;2.40;1.10;;;5.30;99.90;5.10;100562.00;;;;4870568;28;92116;-65
2022/04/10 08:20:03;;;;;;;1.70;1.27;;;5.30;99.90;5.10;100555.00;;;;4875054;28;88133;-65
2022/04/10 08:22:32;;;;;;;2.93;1.83;;;5.20;99.90;5.00;100556.00;;;;4854823;28;87854;-65
2022/04/10 08:25:12;;;;;;;1.50;0.97;;;5.90;99.90;5.00;100567.00;;;;4875261;28;88946;-65
2022/04/10 08:27:38;;;;;;;1.30;0.93;;;5.10;99.90;4.90;100555.00;;;;4867426;28;88383;-66
2022/04/10 08:30:08;;;;;;;2.40;1.40;;;5.10;99.90;4.90;100568.00;;;;4872490;28;87811;-65
2022/04/10 08:32:38;;;;;;;3.97;0.90;;;5.10;99.90;4.90;100576.00;;;;4874907;28;87281;-65
2022/04/10 08:35:05;;;;;;;6.03;1.27;;;5.50;99.90;4.90;100571.00;;;;4875267;28;88328;-65
2022/04/10 08:37:32;;;;;;;2.77;1.07;;;5.10;99.90;5.00;100577.00;;;;4872371;28;87677;-65
2022/04/10 08:39:57;;;;;;;1.33;1.23;;;5.10;99.90;5.00;100575.00;;;;4872495;28;88714;-65
2022/04/10 08:42:23;;;;;;;1.90;1.43;;;5.10;99.90;5.00;100586.00;;;;4871112;28;109000;-65
2022/04/10 08:44:49;;;;;;;1.33;0.93;;;5.20;99.90;5.10;100583.00;;;;4873133;28;88140;-65
2022/04/10 08:47:21;;;;;;;1.53;1.20;;;5.20;99.90;5.20;100578.00;;;;4873250;28;117214;-65
2022/04/10 08:49:48;;;;;;;3.27;1.50;;;5.70;99.90;5.30;100581.00;;;;4875277;28;88028;-65
2022/04/10 08:52:17;;;;;;;5.97;1.33;;;5.40;99.90;5.40;100589.00;;;;4873575;28;100307;-65
2022/04/10 08:54:45;;;;;;;2.00;1.27;;;5.90;99.90;5.50;100582.00;;;;4874507;28;88902;-65
2022/04/10 08:57:11;;;;;;;6.00;1.20;;;5.60;99.90;5.70;100594.00;;;;4873928;28;89290;-65
2022/04/10 08:59:37;;;;;;;1.30;1.20;;;5.70;99.90;5.80;100589.00;;;;4875110;28;87724;-65
2022/04/10 09:02:03;;;;;;;0.73;0.73;;;5.90;99.90;6.00;100592.00;;;;4873904;28;98191;-65
2022/04/10 09:04:31;;;;;;;2.13;1.60;;;6.00;99.90;6.10;100583.00;;;;4874568;28;89129;-66
2022/04/10 09:07:08;;;;;;;2.93;1.07;;;6.10;99.90;6.40;100586.00;;;;4874147;28;89567;-65
2022/04/10 09:09:37;;;;;;;1.47;1.00;;;6.30;99.90;6.60;100594.00;;;;4874183;28;87850;-65
2022/04/10 09:12:04;;;;;;;5.33;1.10;;;6.60;99.80;6.70;100596.00;;;;4856733;28;87808;-65
2022/04/10 09:14:39;;;;;;;3.57;1.13;;;6.70;99.00;6.80;100602.00;;;;4874626;28;88337;-65
2022/04/10 09:17:16;;;;;;;2.80;1.57;;;6.80;99.90;6.50;100618.00;;;;4873864;28;87788;-65
2022/04/10 09:19:47;;;;;;;1.60;1.13;;;6.70;99.90;5.90;100619.00;;;;4867498;28;87992;-68
2022/04/10 09:22:33;;;;;;;1.70;1.13;;;6.30;99.90;5.20;100622.00;;;;4870591;28;87213;-69
2022/04/10 09:25:19;;;;;;;2.57;2.10;;;6.20;99.90;4.80;100619.00;;;;4856932;28;89127;-69
2022/04/10 09:27:49;;;;;;;3.50;1.70;;;5.30;99.90;4.80;100622.00;;;;4871323;28;88738;-69
2022/04/10 09:30:20;;;;;;;5.00;1.87;;;5.10;99.90;4.80;100620.00;;;;4873951;28;88871;-68
2022/04/10 09:32:48;;;;;;;3.80;2.40;;;5.00;99.90;4.90;100612.00;;;;4872933;28;88246;-68
2022/04/10 09:35:20;;;;;;;2.97;2.10;;;5.00;99.90;5.00;100606.00;;;;4873411;28;88115;-68
2022/04/10 09:37:55;;;;;;;1.33;1.07;;;5.10;99.90;5.10;100612.00;;;;4873251;28;88750;-67
2022/04/10 09:40:35;;;;;;;2.53;1.97;;;5.20;99.90;5.30;100606.00;;;;4873399;28;100948;-68
2022/04/10 09:43:06;;;;;;;2.00;1.60;;;5.30;99.90;5.50;100593.00;;;;4854978;28;88147;-67
2022/04/10 09:45:36;;;;;;;3.90;1.93;;;5.50;99.90;5.90;100593.00;;;;4873501;28;88507;-66
2022/04/10 09:48:29;;;;;;;6.03;2.30;;;5.80;99.90;6.20;100590.00;;;;4874050;28;87636;-66
2022/04/10 09:51:02;;;;;;;1.57;1.37;;;6.10;99.90;6.60;100576.00;;;;4857779;28;87838;-66
2022/04/10 09:53:28;;;;;;;2.77;1.73;;;6.50;99.90;7.10;100595.00;;;;4870817;28;88072;-67
2022/04/10 09:56:02;;;;;;;5.60;2.10;;;6.90;99.90;7.70;100590.00;;;;4856138;28;88771;-67
2022/04/10 09:58:28;;;;;;;5.20;2.00;;;7.40;99.90;8.10;100579.00;;;;4869201;28;89757;-67
2022/04/10 10:00:55;;;;;;;4.53;1.80;;;7.90;99.90;8.40;100586.00;;;;4877297;28;87537;-65
2022/04/10 10:03:23;;;;;;;1.60;1.43;;;8.30;99.90;8.70;100575.00;;;;4876815;28;87721;-65
2022/04/10 10:05:51;;;;;;;5.47;1.77;;;8.60;99.90;8.90;100582.00;;;;4877983;28;89925;-66
2022/04/10 10:08:17;;;;;;;1.90;1.20;;;8.80;99.90;8.90;100583.00;;;;4876234;28;88444;-66
2022/04/10 10:10:44;;;;;;;4.10;1.17;;;8.90;99.20;8.90;100604.00;;;;4876930;28;98273;-66
2022/04/10 10:13:12;;;;;;;2.73;1.23;;;8.90;95.70;8.60;100592.00;;;;4873562;28;87429;-66
2022/04/10 10:15:39;;;;;;;1.67;1.57;;;8.80;93.10;8.40;100598.00;;;;4876096;28;88576;-65
2022/04/10 10:18:07;;;;;;;5.03;1.50;;;8.60;93.70;8.20;100590.00;;;;4876341;28;88091;-65
2022/04/10 10:20:34;;;;;;;8.10;1.33;;;8.40;94.40;8.20;100588.00;;;;4876741;28;91081;-65
2022/04/10 10:23:07;;;;;;;5.40;2.23;;;8.30;95.00;8.40;100590.00;;;;4858878;28;87765;-66
2022/04/10 10:25:50;;;;;;;3.30;2.00;;;8.70;96.00;8.70;100588.00;;;;4858773;28;105685;-66
2022/04/10 10:29:05;;;;;;;6.63;2.10;;;8.60;96.00;9.10;100588.00;;;;4854016;28;87826;-65
2022/04/10 10:32:16;;;;;;;4.40;1.33;;;9.00;96.60;9.20;100586.00;;;;4851405;28;103851;-65
2022/04/10 10:34:43;;;;;;;2.50;1.77;;;9.20;91.60;9.50;100579.00;;;;4877111;28;87873;-64
2022/04/10 10:37:13;;;;;;;4.77;1.30;;;9.40;92.00;9.70;100586.00;;;;4858679;28;88235;-64
2022/04/10 10:39:46;;;;;;;4.00;1.30;;;9.60;89.90;10.00;100588.00;;;;4876672;28;88924;-64
2022/04/10 10:42:13;;;;;;;2.33;1.23;;;9.90;87.80;10.30;100592.00;;;;4853555;28;87965;-63
2022/04/10 10:44:39;;;;;;;3.10;1.93;;;10.10;88.10;10.60;100592.00;;;;4877218;28;87954;-63
2022/04/10 10:47:05;;;;;;;2.77;1.50;;;10.40;84.30;10.70;100598.00;;;;4875282;28;89061;-63
2022/04/10 10:49:53;;;;;;;2.37;1.57;;;10.60;83.60;10.80;100590.00;;;;4876944;28;89428;-63
2022/04/10 10:52:20;;;;;;;1.40;1.10;;;10.70;83.20;10.70;100582.00;;;;4875645;28;87748;-63
2022/04/10 10:54:58;;;;;;;1.53;1.37;;;10.70;81.40;10.60;100595.00;;;;4876782;28;87901;-63
2022/04/10 10:57:40;;;;;;;4.97;1.37;;;10.70;78.50;10.60;100581.00;;;;4875310;28;87853;-63
2022/04/10 11:00:19;;;;;;;3.10;1.73;;;10.60;79.10;11.00;100578.00;;;;4876271;28;88304;-63
2022/04/10 11:02:52;;;;;;;8.33;1.40;;;10.80;80.30;11.40;100571.00;;;;4868237;28;87708;-64
2022/04/10 11:05:24;;;;;;;2.83;1.10;;;11.20;79.00;11.50;100575.00;;;;4877613;28;86965;-63
2022/04/10 11:08:09;;;;;;;3.23;1.50;;;11.40;75.80;11.40;100579.00;;;;4874914;28;117924;-64